Terminal Aerodrome Forecast
Issued by NWS Newport/Morehead City, NC

Home | Current Version | Previous Version | Graphics & Text | Print | Product List | Glossary On
Versions: 1 2 3 4 5 6 7 8 9 10 11 12 13 14 15
000
FTUS42 KMHX 160728 AAA
TAFEWN
TAF AMD
KEWN 160728Z 1607/1706 22003KT P6SM FEW250
      TEMPO 1607/1608 3/4SM BR BKN002
     FM160800 23003KT 3/4SM BR BKN003
     FM161200 29005KT P6SM BKN090
     FM161800 01011G20KT 6SM -SHRA BKN015
     FM162300 01011KT P6SM BKN025
     FM170200 01009KT P6SM SCT090=

USA.gov is the U.S. government's official web portal to all federal, state and local government web resources and services.